sensor_id;sensor_type;location;lat;lon;timestamp;P1;durP1;ratioP1;P2;durP2;ratioP2
3815;SDS011;1923;48.154;11.536;2023-07-29T00:00:12;4.00;;;2.20;;
3815;SDS011;1923;48.154;11.536;2023-07-29T00:02:40;4.07;;;2.87;;
3815;SDS011;1923;48.154;11.536;2023-07-29T00:05:08;4.33;;;2.60;;
3815;SDS011;1923;48.154;11.536;2023-07-29T00:07:36;4.77;;;2.30;;
3815;SDS011;1923;48.154;11.536;2023-07-29T00:10:05;4.57;;;2.57;;
3815;SDS011;1923;48.154;11.536;2023-07-29T00:12:34;8.90;;;3.30;;
3815;SDS011;1923;48.154;11.536;2023-07-29T00:15:03;5.90;;;3.20;;
3815;SDS011;1923;48.154;11.536;2023-07-29T00:17:32;4.47;;;2.40;;
3815;SDS011;1923;48.154;11.536;2023-07-29T00:20:00;4.10;;;2.20;;
3815;SDS011;1923;48.154;11.536;2023-07-29T00:22:28;2.60;;;1.83;;
3815;SDS011;1923;48.154;11.536;2023-07-29T00:24:56;3.00;;;1.80;;
3815;SDS011;1923;48.154;11.536;2023-07-29T00:27:30;4.27;;;2.00;;
3815;SDS011;1923;48.154;11.536;2023-07-29T00:29:57;5.33;;;2.53;;
3815;SDS011;1923;48.154;11.536;2023-07-29T00:32:29;4.03;;;2.23;;
3815;SDS011;1923;48.154;11.536;2023-07-29T00:34:57;4.83;;;2.70;;
3815;SDS011;1923;48.154;11.536;2023-07-29T00:37:27;3.77;;;2.50;;
3815;SDS011;1923;48.154;11.536;2023-07-29T00:39:55;4.47;;;2.40;;
3815;SDS011;1923;48.154;11.536;2023-07-29T00:42:24;3.23;;;1.97;;
3815;SDS011;1923;48.154;11.536;2023-07-29T00:44:52;3.73;;;2.20;;
3815;SDS011;1923;48.154;11.536;2023-07-29T00:47:20;3.40;;;2.27;;
3815;SDS011;1923;48.154;11.536;2023-07-29T00:49:52;3.53;;;1.93;;
3815;SDS011;1923;48.154;11.536;2023-07-29T00:52:19;3.13;;;2.10;;
3815;SDS011;1923;48.154;11.536;2023-07-29T00:54:48;4.23;;;2.30;;
3815;SDS011;1923;48.154;11.536;2023-07-29T00:57:16;3.83;;;2.23;;
3815;SDS011;1923;48.154;11.536;2023-07-29T00:59:45;2.73;;;1.60;;
3815;SDS011;1923;48.154;11.536;2023-07-29T01:02:13;3.63;;;2.07;;
3815;SDS011;1923;48.154;11.536;2023-07-29T01:04:41;2.70;;;1.80;;
3815;SDS011;1923;48.154;11.536;2023-07-29T01:07:12;3.77;;;1.83;;
3815;SDS011;1923;48.154;11.536;2023-07-29T01:09:50;3.17;;;2.10;;
3815;SDS011;1923;48.154;11.536;2023-07-29T01:12:26;2.77;;;1.80;;
3815;SDS011;1923;48.154;11.536;2023-07-29T01:15:01;1.90;;;1.37;;
3815;SDS011;1923;48.154;11.536;2023-07-29T01:17:38;2.40;;;2.20;;
3815;SDS011;1923;48.154;11.536;2023-07-29T01:20:10;3.40;;;2.00;;
3815;SDS011;1923;48.154;11.536;2023-07-29T01:22:42;4.63;;;1.80;;
3815;SDS011;1923;48.154;11.536;2023-07-29T01:25:12;3.70;;;2.23;;
3815;SDS011;1923;48.154;11.536;2023-07-29T01:27:41;3.63;;;2.17;;
3815;SDS011;1923;48.154;11.536;2023-07-29T01:30:10;3.67;;;1.93;;
3815;SDS011;1923;48.154;11.536;2023-07-29T01:32:43;3.63;;;1.70;;
3815;SDS011;1923;48.154;11.536;2023-07-29T01:35:15;2.73;;;1.80;;
3815;SDS011;1923;48.154;11.536;2023-07-29T01:37:49;3.10;;;1.93;;
3815;SDS011;1923;48.154;11.536;2023-07-29T01:40:23;4.80;;;2.50;;
3815;SDS011;1923;48.154;11.536;2023-07-29T01:42:54;5.97;;;2.97;;
3815;SDS011;1923;48.154;11.536;2023-07-29T01:45:23;3.67;;;2.00;;
3815;SDS011;1923;48.154;11.536;2023-07-29T01:47:52;4.17;;;2.17;;
3815;SDS011;1923;48.154;11.536;2023-07-29T01:50:20;4.97;;;2.37;;
3815;SDS011;1923;48.154;11.536;2023-07-29T01:52:48;4.67;;;2.20;;
3815;SDS011;1923;48.154;11.536;2023-07-29T01:55:16;3.43;;;1.73;;
3815;SDS011;1923;48.154;11.536;2023-07-29T01:57:45;4.40;;;2.07;;
3815;SDS011;1923;48.154;11.536;2023-07-29T02:00:13;2.47;;;1.80;;
3815;SDS011;1923;48.154;11.536;2023-07-29T02:02:42;2.90;;;2.40;;
3815;SDS011;1923;48.154;11.536;2023-07-29T02:05:10;5.03;;;2.27;;
3815;SDS011;1923;48.154;11.536;2023-07-29T02:07:38;3.40;;;2.10;;
3815;SDS011;1923;48.154;11.536;2023-07-29T02:10:06;3.00;;;2.20;;
3815;SDS011;1923;48.154;11.536;2023-07-29T02:12:35;4.17;;;2.03;;
3815;SDS011;1923;48.154;11.536;2023-07-29T02:15:05;3.00;;;1.73;;
3815;SDS011;1923;48.154;11.536;2023-07-29T02:17:35;4.03;;;2.20;;
3815;SDS011;1923;48.154;11.536;2023-07-29T02:20:04;3.13;;;1.87;;
3815;SDS011;1923;48.154;11.536;2023-07-29T02:22:32;3.60;;;1.90;;
3815;SDS011;1923;48.154;11.536;2023-07-29T02:25:00;3.70;;;2.00;;
3815;SDS011;1923;48.154;11.536;2023-07-29T02:27:32;6.77;;;3.37;;
3815;SDS011;1923;48.154;11.536;2023-07-29T02:30:00;3.00;;;2.10;;
3815;SDS011;1923;48.154;11.536;2023-07-29T02:32:30;2.60;;;2.03;;
3815;SDS011;1923;48.154;11.536;2023-07-29T02:34:58;3.30;;;2.10;;
3815;SDS011;1923;48.154;11.536;2023-07-29T02:37:26;4.80;;;2.30;;
3815;SDS011;1923;48.154;11.536;2023-07-29T02:39:54;3.63;;;2.33;;
3815;SDS011;1923;48.154;11.536;2023-07-29T02:42:22;3.30;;;1.80;;
3815;SDS011;1923;48.154;11.536;2023-07-29T02:44:50;3.63;;;2.10;;
3815;SDS011;1923;48.154;11.536;2023-07-29T02:47:19;3.43;;;1.97;;
3815;SDS011;1923;48.154;11.536;2023-07-29T02:49:48;4.20;;;2.13;;
3815;SDS011;1923;48.154;11.536;2023-07-29T02:52:16;4.40;;;1.83;;
3815;SDS011;1923;48.154;11.536;2023-07-29T02:54:44;3.60;;;1.90;;
3815;SDS011;1923;48.154;11.536;2023-07-29T02:57:13;3.60;;;2.20;;
3815;SDS011;1923;48.154;11.536;2023-07-29T02:59:41;2.83;;;1.97;;
3815;SDS011;1923;48.154;11.536;2023-07-29T03:02:09;2.97;;;1.90;;
3815;SDS011;1923;48.154;11.536;2023-07-29T03:04:40;3.73;;;2.20;;
3815;SDS011;1923;48.154;11.536;2023-07-29T03:07:09;4.03;;;1.70;;
3815;SDS011;1923;48.154;11.536;2023-07-29T03:09:38;2.57;;;1.70;;
3815;SDS011;1923;48.154;11.536;2023-07-29T03:12:08;2.90;;;2.13;;
3815;SDS011;1923;48.154;11.536;2023-07-29T03:14:36;3.63;;;2.00;;
3815;SDS011;1923;48.154;11.536;2023-07-29T03:17:04;2.17;;;1.70;;
3815;SDS011;1923;48.154;11.536;2023-07-29T03:19:32;5.73;;;2.23;;
3815;SDS011;1923;48.154;11.536;2023-07-29T03:22:01;6.87;;;1.90;;
3815;SDS011;1923;48.154;11.536;2023-07-29T03:24:30;3.60;;;2.03;;
3815;SDS011;1923;48.154;11.536;2023-07-29T03:26:59;2.63;;;1.80;;
3815;SDS011;1923;48.154;11.536;2023-07-29T03:29:27;4.70;;;2.77;;
3815;SDS011;1923;48.154;11.536;2023-07-29T03:31:55;2.90;;;1.90;;
3815;SDS011;1923;48.154;11.536;2023-07-29T03:34:23;1.90;;;1.37;;
3815;SDS011;1923;48.154;11.536;2023-07-29T03:36:51;3.20;;;1.63;;
3815;SDS011;1923;48.154;11.536;2023-07-29T03:39:19;3.97;;;2.10;;
3815;SDS011;1923;48.154;11.536;2023-07-29T03:41:48;3.70;;;2.10;;
3815;SDS011;1923;48.154;11.536;2023-07-29T03:44:17;2.60;;;1.70;;
3815;SDS011;1923;48.154;11.536;2023-07-29T03:46:45;4.00;;;2.23;;
3815;SDS011;1923;48.154;11.536;2023-07-29T03:49:13;2.80;;;1.90;;
3815;SDS011;1923;48.154;11.536;2023-07-29T03:51:41;4.67;;;2.10;;
3815;SDS011;1923;48.154;11.536;2023-07-29T03:54:10;4.23;;;2.13;;
3815;SDS011;1923;48.154;11.536;2023-07-29T03:56:38;3.03;;;1.80;;
3815;SDS011;1923;48.154;11.536;2023-07-29T03:59:07;3.87;;;2.00;;
3815;SDS011;1923;48.154;11.536;2023-07-29T04:01:35;2.37;;;1.80;;
3815;SDS011;1923;48.154;11.536;2023-07-29T04:04:03;1.50;;;1.20;;
3815;SDS011;1923;48.154;11.536;2023-07-29T04:06:32;3.63;;;2.30;;
3815;SDS011;1923;48.154;11.536;2023-07-29T04:09:00;4.17;;;2.17;;
3815;SDS011;1923;48.154;11.536;2023-07-29T04:11:28;3.37;;;1.83;;
3815;SDS011;1923;48.154;11.536;2023-07-29T04:13:56;2.97;;;1.60;;
3815;SDS011;1923;48.154;11.536;2023-07-29T04:16:26;4.07;;;1.90;;
3815;SDS011;1923;48.154;11.536;2023-07-29T04:18:55;3.10;;;1.80;;
3815;SDS011;1923;48.154;11.536;2023-07-29T04:21:23;3.37;;;2.00;;
3815;SDS011;1923;48.154;11.536;2023-07-29T04:23:51;2.10;;;1.40;;
3815;SDS011;1923;48.154;11.536;2023-07-29T04:26:19;4.00;;;2.20;;
3815;SDS011;1923;48.154;11.536;2023-07-29T04:28:47;3.10;;;1.80;;
3815;SDS011;1923;48.154;11.536;2023-07-29T04:31:15;3.00;;;1.87;;
3815;SDS011;1923;48.154;11.536;2023-07-29T04:33:45;2.30;;;1.60;;
3815;SDS011;1923;48.154;11.536;2023-07-29T04:36:13;3.30;;;1.90;;
3815;SDS011;1923;48.154;11.536;2023-07-29T04:38:41;3.03;;;1.67;;
3815;SDS011;1923;48.154;11.536;2023-07-29T04:41:09;2.73;;;1.70;;
3815;SDS011;1923;48.154;11.536;2023-07-29T04:43:37;4.27;;;1.93;;
3815;SDS011;1923;48.154;11.536;2023-07-29T04:46:06;4.83;;;2.27;;
3815;SDS011;1923;48.154;11.536;2023-07-29T04:48:35;3.03;;;2.13;;
3815;SDS011;1923;48.154;11.536;2023-07-29T04:51:04;3.23;;;2.23;;
3815;SDS011;1923;48.154;11.536;2023-07-29T04:53:32;6.83;;;3.10;;
3815;SDS011;1923;48.154;11.536;2023-07-29T04:56:01;3.03;;;2.00;;
3815;SDS011;1923;48.154;11.536;2023-07-29T04:58:29;3.03;;;1.70;;
3815;SDS011;1923;48.154;11.536;2023-07-29T05:01:01;4.53;;;1.80;;
3815;SDS011;1923;48.154;11.536;2023-07-29T05:03:29;3.43;;;1.60;;
3815;SDS011;1923;48.154;11.536;2023-07-29T05:05:57;3.13;;;1.90;;
3815;SDS011;1923;48.154;11.536;2023-07-29T05:08:28;2.00;;;1.40;;
3815;SDS011;1923;48.154;11.536;2023-07-29T05:11:02;2.00;;;1.30;;
3815;SDS011;1923;48.154;11.536;2023-07-29T05:13:30;2.30;;;1.20;;
3815;SDS011;1923;48.154;11.536;2023-07-29T05:15:58;2.63;;;1.40;;
3815;SDS011;1923;48.154;11.536;2023-07-29T05:18:27;1.47;;;1.10;;
3815;SDS011;1923;48.154;11.536;2023-07-29T05:20:55;1.47;;;1.30;;
3815;SDS011;1923;48.154;11.536;2023-07-29T05:23:22;3.17;;;1.70;;
3815;SDS011;1923;48.154;11.536;2023-07-29T05:25:52;2.40;;;1.60;;
3815;SDS011;1923;48.154;11.536;2023-07-29T05:28:20;2.73;;;1.37;;
3815;SDS011;1923;48.154;11.536;2023-07-29T05:30:48;2.00;;;1.27;;
3815;SDS011;1923;48.154;11.536;2023-07-29T05:33:16;2.40;;;1.30;;
3815;SDS011;1923;48.154;11.536;2023-07-29T05:35:45;2.43;;;1.37;;
3815;SDS011;1923;48.154;11.536;2023-07-29T05:38:13;2.80;;;1.40;;
3815;SDS011;1923;48.154;11.536;2023-07-29T05:40:41;1.83;;;1.30;;
3815;SDS011;1923;48.154;11.536;2023-07-29T05:43:11;1.67;;;1.00;;
3815;SDS011;1923;48.154;11.536;2023-07-29T05:45:40;2.13;;;1.20;;
3815;SDS011;1923;48.154;11.536;2023-07-29T05:48:08;1.87;;;1.00;;
3815;SDS011;1923;48.154;11.536;2023-07-29T05:50:36;1.47;;;0.93;;
3815;SDS011;1923;48.154;11.536;2023-07-29T05:53:05;1.83;;;0.93;;
3815;SDS011;1923;48.154;11.536;2023-07-29T05:55:32;3.03;;;1.90;;
3815;SDS011;1923;48.154;11.536;2023-07-29T05:58:02;2.43;;;1.87;;
3815;SDS011;1923;48.154;11.536;2023-07-29T06:00:32;2.70;;;1.57;;
3815;SDS011;1923;48.154;11.536;2023-07-29T06:03:00;5.00;;;1.10;;
3815;SDS011;1923;48.154;11.536;2023-07-29T06:05:32;2.60;;;1.30;;
3815;SDS011;1923;48.154;11.536;2023-07-29T06:08:00;2.03;;;1.27;;
3815;SDS011;1923;48.154;11.536;2023-07-29T06:10:28;3.37;;;1.63;;
3815;SDS011;1923;48.154;11.536;2023-07-29T06:12:56;2.30;;;0.90;;
3815;SDS011;1923;48.154;11.536;2023-07-29T06:15:24;4.40;;;2.67;;
3815;SDS011;1923;48.154;11.536;2023-07-29T06:17:54;3.83;;;1.97;;
3815;SDS011;1923;48.154;11.536;2023-07-29T06:20:22;2.03;;;1.33;;
3815;SDS011;1923;48.154;11.536;2023-07-29T06:22:50;2.27;;;1.57;;
3815;SDS011;1923;48.154;11.536;2023-07-29T06:25:19;4.10;;;1.77;;
3815;SDS011;1923;48.154;11.536;2023-07-29T06:27:47;3.50;;;0.93;;
3815;SDS011;1923;48.154;11.536;2023-07-29T06:30:15;3.37;;;1.50;;
3815;SDS011;1923;48.154;11.536;2023-07-29T06:32:43;2.00;;;1.40;;
3815;SDS011;1923;48.154;11.536;2023-07-29T06:35:13;1.70;;;1.50;;
3815;SDS011;1923;48.154;11.536;2023-07-29T06:37:41;2.43;;;1.00;;
3815;SDS011;1923;48.154;11.536;2023-07-29T06:40:09;4.20;;;1.90;;
3815;SDS011;1923;48.154;11.536;2023-07-29T06:42:38;4.63;;;1.40;;
3815;SDS011;1923;48.154;11.536;2023-07-29T06:45:06;5.27;;;2.70;;
3815;SDS011;1923;48.154;11.536;2023-07-29T06:47:35;8.17;;;3.27;;
3815;SDS011;1923;48.154;11.536;2023-07-29T06:50:03;2.20;;;1.53;;
3815;SDS011;1923;48.154;11.536;2023-07-29T06:52:33;1.13;;;0.90;;
3815;SDS011;1923;48.154;11.536;2023-07-29T06:55:03;3.43;;;1.90;;
3815;SDS011;1923;48.154;11.536;2023-07-29T06:57:31;3.87;;;1.80;;
3815;SDS011;1923;48.154;11.536;2023-07-29T06:59:59;5.10;;;1.90;;
3815;SDS011;1923;48.154;11.536;2023-07-29T07:02:28;2.63;;;1.60;;
3815;SDS011;1923;48.154;11.536;2023-07-29T07:04:57;6.30;;;2.80;;
3815;SDS011;1923;48.154;11.536;2023-07-29T07:07:25;7.33;;;2.50;;
3815;SDS011;1923;48.154;11.536;2023-07-29T07:09:54;11.80;;;3.60;;
3815;SDS011;1923;48.154;11.536;2023-07-29T07:12:26;3.60;;;2.70;;
3815;SDS011;1923;48.154;11.536;2023-07-29T07:14:54;4.47;;;1.90;;
3815;SDS011;1923;48.154;11.536;2023-07-29T07:17:22;4.27;;;2.63;;
3815;SDS011;1923;48.154;11.536;2023-07-29T07:19:50;3.43;;;2.20;;
3815;SDS011;1923;48.154;11.536;2023-07-29T07:22:18;6.67;;;2.93;;
3815;SDS011;1923;48.154;11.536;2023-07-29T07:24:47;3.40;;;2.30;;
3815;SDS011;1923;48.154;11.536;2023-07-29T07:27:16;2.20;;;1.63;;
3815;SDS011;1923;48.154;11.536;2023-07-29T07:29:44;4.10;;;1.90;;
3815;SDS011;1923;48.154;11.536;2023-07-29T07:32:12;5.20;;;1.90;;
3815;SDS011;1923;48.154;11.536;2023-07-29T07:34:40;2.80;;;1.80;;
3815;SDS011;1923;48.154;11.536;2023-07-29T07:37:08;10.77;;;2.27;;
3815;SDS011;1923;48.154;11.536;2023-07-29T07:39:36;3.53;;;1.80;;
3815;SDS011;1923;48.154;11.536;2023-07-29T07:42:04;7.03;;;2.33;;
3815;SDS011;1923;48.154;11.536;2023-07-29T07:44:34;3.50;;;2.63;;
3815;SDS011;1923;48.154;11.536;2023-07-29T07:47:02;3.90;;;2.40;;
3815;SDS011;1923;48.154;11.536;2023-07-29T07:49:31;5.03;;;2.70;;
3815;SDS011;1923;48.154;11.536;2023-07-29T07:51:59;5.10;;;2.17;;
3815;SDS011;1923;48.154;11.536;2023-07-29T07:54:27;4.50;;;2.00;;
3815;SDS011;1923;48.154;11.536;2023-07-29T07:56:55;5.57;;;2.10;;
3815;SDS011;1923;48.154;11.536;2023-07-29T07:59:23;3.10;;;2.10;;
3815;SDS011;1923;48.154;11.536;2023-07-29T08:01:52;3.90;;;2.30;;
3815;SDS011;1923;48.154;11.536;2023-07-29T08:04:20;2.50;;;1.90;;
3815;SDS011;1923;48.154;11.536;2023-07-29T08:06:48;3.97;;;2.20;;
3815;SDS011;1923;48.154;11.536;2023-07-29T08:09:16;4.30;;;1.73;;
3815;SDS011;1923;48.154;11.536;2023-07-29T08:11:44;3.03;;;1.87;;
3815;SDS011;1923;48.154;11.536;2023-07-29T08:14:12;3.80;;;2.47;;
3815;SDS011;1923;48.154;11.536;2023-07-29T08:16:40;3.23;;;2.33;;
3815;SDS011;1923;48.154;11.536;2023-07-29T08:19:10;3.30;;;2.20;;
3815;SDS011;1923;48.154;11.536;2023-07-29T08:21:37;4.57;;;2.00;;
3815;SDS011;1923;48.154;11.536;2023-07-29T08:24:06;2.43;;;1.97;;
3815;SDS011;1923;48.154;11.536;2023-07-29T08:26:34;3.97;;;2.17;;
3815;SDS011;1923;48.154;11.536;2023-07-29T08:29:02;3.47;;;1.67;;
3815;SDS011;1923;48.154;11.536;2023-07-29T08:31:30;6.27;;;2.30;;
3815;SDS011;1923;48.154;11.536;2023-07-29T08:34:01;4.77;;;2.13;;
3815;SDS011;1923;48.154;11.536;2023-07-29T08:36:30;2.57;;;1.70;;
3815;SDS011;1923;48.154;11.536;2023-07-29T08:38:58;3.70;;;2.10;;
3815;SDS011;1923;48.154;11.536;2023-07-29T08:41:29;2.03;;;1.20;;
3815;SDS011;1923;48.154;11.536;2023-07-29T08:44:05;3.40;;;2.10;;
3815;SDS011;1923;48.154;11.536;2023-07-29T08:46:38;3.40;;;2.10;;
3815;SDS011;1923;48.154;11.536;2023-07-29T08:49:07;3.00;;;1.87;;
3815;SDS011;1923;48.154;11.536;2023-07-29T08:51:36;2.97;;;1.90;;
3815;SDS011;1923;48.154;11.536;2023-07-29T08:54:05;2.30;;;1.83;;
3815;SDS011;1923;48.154;11.536;2023-07-29T08:56:34;3.90;;;2.30;;
3815;SDS011;1923;48.154;11.536;2023-07-29T08:59:02;3.23;;;2.40;;
3815;SDS011;1923;48.154;11.536;2023-07-29T09:01:31;4.73;;;2.70;;
3815;SDS011;1923;48.154;11.536;2023-07-29T09:04:00;3.07;;;2.47;;
3815;SDS011;1923;48.154;11.536;2023-07-29T09:06:28;2.80;;;2.50;;
3815;SDS011;1923;48.154;11.536;2023-07-29T09:08:57;6.80;;;2.57;;
3815;SDS011;1923;48.154;11.536;2023-07-29T09:11:26;3.87;;;2.27;;
3815;SDS011;1923;48.154;11.536;2023-07-29T09:13:55;3.53;;;2.17;;
3815;SDS011;1923;48.154;11.536;2023-07-29T09:16:23;2.20;;;1.53;;
3815;SDS011;1923;48.154;11.536;2023-07-29T09:18:52;2.43;;;1.50;;
3815;SDS011;1923;48.154;11.536;2023-07-29T09:21:22;2.80;;;1.60;;
3815;SDS011;1923;48.154;11.536;2023-07-29T09:23:53;3.17;;;1.90;;
3815;SDS011;1923;48.154;11.536;2023-07-29T09:26:23;3.43;;;1.60;;
3815;SDS011;1923;48.154;11.536;2023-07-29T09:28:52;1.53;;;1.20;;
3815;SDS011;1923;48.154;11.536;2023-07-29T09:31:21;3.20;;;1.87;;
3815;SDS011;1923;48.154;11.536;2023-07-29T09:33:53;3.07;;;1.60;;
3815;SDS011;1923;48.154;11.536;2023-07-29T09:36:24;1.90;;;1.40;;
3815;SDS011;1923;48.154;11.536;2023-07-29T09:38:53;2.03;;;1.80;;
3815;SDS011;1923;48.154;11.536;2023-07-29T09:41:24;2.40;;;1.67;;
3815;SDS011;1923;48.154;11.536;2023-07-29T09:43:56;3.47;;;1.50;;
3815;SDS011;1923;48.154;11.536;2023-07-29T09:46:25;4.87;;;2.43;;
3815;SDS011;1923;48.154;11.536;2023-07-29T09:49:01;1.90;;;1.30;;
3815;SDS011;1923;48.154;11.536;2023-07-29T09:51:29;2.13;;;1.63;;
3815;SDS011;1923;48.154;11.536;2023-07-29T09:53:58;3.57;;;2.13;;
3815;SDS011;1923;48.154;11.536;2023-07-29T09:56:31;3.50;;;1.60;;
3815;SDS011;1923;48.154;11.536;2023-07-29T09:59:00;1.90;;;1.27;;
3815;SDS011;1923;48.154;11.536;2023-07-29T10:01:31;1.87;;;1.60;;
3815;SDS011;1923;48.154;11.536;2023-07-29T10:04:02;2.13;;;1.30;;
3815;SDS011;1923;48.154;11.536;2023-07-29T10:06:31;1.77;;;1.27;;
3815;SDS011;1923;48.154;11.536;2023-07-29T10:09:02;1.60;;;1.40;;
3815;SDS011;1923;48.154;11.536;2023-07-29T10:11:33;3.23;;;2.47;;
3815;SDS011;1923;48.154;11.536;2023-07-29T10:14:03;2.37;;;1.80;;
3815;SDS011;1923;48.154;11.536;2023-07-29T10:16:34;3.20;;;2.23;;
3815;SDS011;1923;48.154;11.536;2023-07-29T10:19:05;3.43;;;2.00;;
3815;SDS011;1923;48.154;11.536;2023-07-29T10:21:35;3.80;;;2.07;;
3815;SDS011;1923;48.154;11.536;2023-07-29T10:24:05;3.00;;;1.90;;
3815;SDS011;1923;48.154;11.536;2023-07-29T10:26:39;5.60;;;2.57;;
3815;SDS011;1923;48.154;11.536;2023-07-29T10:29:10;2.53;;;1.50;;
3815;SDS011;1923;48.154;11.536;2023-07-29T10:31:40;2.20;;;1.80;;
3815;SDS011;1923;48.154;11.536;2023-07-29T10:34:11;3.20;;;2.07;;
3815;SDS011;1923;48.154;11.536;2023-07-29T10:36:40;1.97;;;1.17;;
3815;SDS011;1923;48.154;11.536;2023-07-29T10:39:10;2.00;;;1.37;;
3815;SDS011;1923;48.154;11.536;2023-07-29T10:41:55;6.37;;;2.30;;
3815;SDS011;1923;48.154;11.536;2023-07-29T10:47:20;2.17;;;1.60;;
3815;SDS011;1923;48.154;11.536;2023-07-29T10:49:50;1.47;;;1.37;;
3815;SDS011;1923;48.154;11.536;2023-07-29T10:55:23;1.93;;;1.60;;
3815;SDS011;1923;48.154;11.536;2023-07-29T10:57:54;1.60;;;1.27;;
3815;SDS011;1923;48.154;11.536;2023-07-29T11:00:32;4.37;;;2.23;;
3815;SDS011;1923;48.154;11.536;2023-07-29T11:03:02;2.53;;;1.70;;
3815;SDS011;1923;48.154;11.536;2023-07-29T11:05:42;6.60;;;1.93;;
3815;SDS011;1923;48.154;11.536;2023-07-29T11:08:21;3.30;;;1.80;;
3815;SDS011;1923;48.154;11.536;2023-07-29T11:13:41;3.30;;;2.33;;
3815;SDS011;1923;48.154;11.536;2023-07-29T11:16:09;3.37;;;1.90;;
3815;SDS011;1923;48.154;11.536;2023-07-29T11:18:43;2.47;;;1.60;;
3815;SDS011;1923;48.154;11.536;2023-07-29T11:21:13;2.70;;;1.40;;
3815;SDS011;1923;48.154;11.536;2023-07-29T11:23:41;2.13;;;1.40;;
3815;SDS011;1923;48.154;11.536;2023-07-29T11:26:09;2.23;;;1.13;;
3815;SDS011;1923;48.154;11.536;2023-07-29T11:28:40;2.00;;;1.17;;
3815;SDS011;1923;48.154;11.536;2023-07-29T11:31:09;2.37;;;1.50;;
3815;SDS011;1923;48.154;11.536;2023-07-29T11:33:38;2.30;;;1.70;;
3815;SDS011;1923;48.154;11.536;2023-07-29T11:36:16;4.43;;;1.40;;
3815;SDS011;1923;48.154;11.536;2023-07-29T11:38:45;1.67;;;1.27;;
3815;SDS011;1923;48.154;11.536;2023-07-29T11:41:18;3.30;;;1.63;;
3815;SDS011;1923;48.154;11.536;2023-07-29T11:43:48;2.33;;;1.10;;
3815;SDS011;1923;48.154;11.536;2023-07-29T11:46:20;3.63;;;1.93;;
3815;SDS011;1923;48.154;11.536;2023-07-29T11:48:49;3.17;;;1.80;;
3815;SDS011;1923;48.154;11.536;2023-07-29T11:51:17;4.53;;;1.90;;
3815;SDS011;1923;48.154;11.536;2023-07-29T11:53:45;4.40;;;1.70;;
3815;SDS011;1923;48.154;11.536;2023-07-29T11:56:13;3.30;;;1.87;;
3815;SDS011;1923;48.154;11.536;2023-07-29T11:58:41;4.40;;;1.80;;
3815;SDS011;1923;48.154;11.536;2023-07-29T12:01:11;3.33;;;1.80;;
3815;SDS011;1923;48.154;11.536;2023-07-29T12:03:39;2.90;;;1.80;;
3815;SDS011;1923;48.154;11.536;2023-07-29T12:06:10;5.37;;;2.13;;
3815;SDS011;1923;48.154;11.536;2023-07-29T12:08:38;5.87;;;3.30;;
3815;SDS011;1923;48.154;11.536;2023-07-29T12:11:06;3.10;;;1.77;;
3815;SDS011;1923;48.154;11.536;2023-07-29T12:13:36;2.93;;;1.70;;
3815;SDS011;1923;48.154;11.536;2023-07-29T12:16:04;5.73;;;3.67;;
3815;SDS011;1923;48.154;11.536;2023-07-29T12:18:33;6.20;;;3.20;;
3815;SDS011;1923;48.154;11.536;2023-07-29T12:21:03;5.73;;;2.57;;
3815;SDS011;1923;48.154;11.536;2023-07-29T12:23:31;7.13;;;2.80;;
3815;SDS011;1923;48.154;11.536;2023-07-29T12:25:59;6.20;;;2.20;;
3815;SDS011;1923;48.154;11.536;2023-07-29T12:28:28;3.23;;;2.17;;
3815;SDS011;1923;48.154;11.536;2023-07-29T12:30:57;11.90;;;3.80;;
3815;SDS011;1923;48.154;11.536;2023-07-29T12:33:29;3.00;;;1.93;;
3815;SDS011;1923;48.154;11.536;2023-07-29T12:35:59;3.73;;;1.83;;
3815;SDS011;1923;48.154;11.536;2023-07-29T12:38:27;6.00;;;2.93;;
3815;SDS011;1923;48.154;11.536;2023-07-29T12:40:55;3.33;;;1.80;;
3815;SDS011;1923;48.154;11.536;2023-07-29T12:43:24;3.93;;;2.40;;
3815;SDS011;1923;48.154;11.536;2023-07-29T12:45:52;4.67;;;2.30;;
3815;SDS011;1923;48.154;11.536;2023-07-29T12:48:20;4.80;;;2.23;;
3815;SDS011;1923;48.154;11.536;2023-07-29T12:50:48;5.53;;;2.10;;
3815;SDS011;1923;48.154;11.536;2023-07-29T12:53:19;4.97;;;2.40;;
3815;SDS011;1923;48.154;11.536;2023-07-29T12:55:47;3.70;;;2.10;;
3815;SDS011;1923;48.154;11.536;2023-07-29T12:58:15;6.33;;;1.97;;
3815;SDS011;1923;48.154;11.536;2023-07-29T13:00:43;3.37;;;2.00;;
3815;SDS011;1923;48.154;11.536;2023-07-29T13:03:11;6.00;;;2.00;;
3815;SDS011;1923;48.154;11.536;2023-07-29T13:05:39;5.37;;;1.70;;
3815;SDS011;1923;48.154;11.536;2023-07-29T13:08:07;10.40;;;2.70;;
3815;SDS011;1923;48.154;11.536;2023-07-29T13:10:38;12.10;;;4.23;;
3815;SDS011;1923;48.154;11.536;2023-07-29T13:13:06;8.07;;;4.10;;
3815;SDS011;1923;48.154;11.536;2023-07-29T13:15:34;4.70;;;3.30;;
3815;SDS011;1923;48.154;11.536;2023-07-29T13:18:02;4.27;;;2.73;;
3815;SDS011;1923;48.154;11.536;2023-07-29T13:20:30;8.23;;;4.23;;
3815;SDS011;1923;48.154;11.536;2023-07-29T13:23:00;5.27;;;3.27;;
3815;SDS011;1923;48.154;11.536;2023-07-29T13:25:28;5.93;;;3.13;;
3815;SDS011;1923;48.154;11.536;2023-07-29T13:27:57;17.23;;;6.20;;
3815;SDS011;1923;48.154;11.536;2023-07-29T13:30:25;11.37;;;5.00;;
3815;SDS011;1923;48.154;11.536;2023-07-29T13:32:53;9.13;;;4.33;;
3815;SDS011;1923;48.154;11.536;2023-07-29T13:35:21;7.63;;;4.73;;
3815;SDS011;1923;48.154;11.536;2023-07-29T13:37:49;7.90;;;3.57;;
3815;SDS011;1923;48.154;11.536;2023-07-29T13:40:17;9.03;;;4.47;;
3815;SDS011;1923;48.154;11.536;2023-07-29T13:42:45;12.17;;;5.97;;
3815;SDS011;1923;48.154;11.536;2023-07-29T13:45:15;11.80;;;4.50;;
3815;SDS011;1923;48.154;11.536;2023-07-29T13:47:43;5.20;;;3.80;;
3815;SDS011;1923;48.154;11.536;2023-07-29T13:50:11;7.70;;;3.50;;
3815;SDS011;1923;48.154;11.536;2023-07-29T13:52:39;6.10;;;3.63;;
3815;SDS011;1923;48.154;11.536;2023-07-29T13:55:07;16.53;;;5.57;;
3815;SDS011;1923;48.154;11.536;2023-07-29T13:57:36;8.67;;;4.10;;
3815;SDS011;1923;48.154;11.536;2023-07-29T14:00:05;22.63;;;6.57;;
3815;SDS011;1923;48.154;11.536;2023-07-29T14:02:35;14.57;;;5.47;;
3815;SDS011;1923;48.154;11.536;2023-07-29T14:05:03;9.43;;;6.50;;
3815;SDS011;1923;48.154;11.536;2023-07-29T14:07:33;14.07;;;4.97;;
3815;SDS011;1923;48.154;11.536;2023-07-29T14:10:01;5.27;;;3.30;;
3815;SDS011;1923;48.154;11.536;2023-07-29T14:12:29;5.70;;;2.60;;
3815;SDS011;1923;48.154;11.536;2023-07-29T14:14:57;17.23;;;6.13;;
3815;SDS011;1923;48.154;11.536;2023-07-29T14:17:25;4.73;;;2.57;;
3815;SDS011;1923;48.154;11.536;2023-07-29T14:19:55;5.50;;;2.97;;
3815;SDS011;1923;48.154;11.536;2023-07-29T14:22:23;9.17;;;3.93;;
3815;SDS011;1923;48.154;11.536;2023-07-29T14:24:51;6.80;;;3.20;;
3815;SDS011;1923;48.154;11.536;2023-07-29T14:27:19;6.27;;;3.20;;
3815;SDS011;1923;48.154;11.536;2023-07-29T14:29:47;10.20;;;3.77;;
3815;SDS011;1923;48.154;11.536;2023-07-29T14:32:15;5.50;;;3.30;;
3815;SDS011;1923;48.154;11.536;2023-07-29T14:34:45;7.67;;;4.40;;
3815;SDS011;1923;48.154;11.536;2023-07-29T14:37:14;7.10;;;4.13;;
3815;SDS011;1923;48.154;11.536;2023-07-29T14:39:42;4.93;;;2.80;;
3815;SDS011;1923;48.154;11.536;2023-07-29T14:42:10;6.27;;;3.23;;
3815;SDS011;1923;48.154;11.536;2023-07-29T14:44:39;10.03;;;4.50;;
3815;SDS011;1923;48.154;11.536;2023-07-29T14:47:07;6.50;;;3.50;;
3815;SDS011;1923;48.154;11.536;2023-07-29T14:49:35;15.10;;;5.50;;
3815;SDS011;1923;48.154;11.536;2023-07-29T14:52:04;15.27;;;7.37;;
3815;SDS011;1923;48.154;11.536;2023-07-29T14:54:34;8.03;;;3.43;;
3815;SDS011;1923;48.154;11.536;2023-07-29T14:57:02;5.50;;;3.10;;
3815;SDS011;1923;48.154;11.536;2023-07-29T14:59:32;7.20;;;3.80;;
3815;SDS011;1923;48.154;11.536;2023-07-29T15:02:00;10.40;;;5.13;;
3815;SDS011;1923;48.154;11.536;2023-07-29T15:04:28;8.77;;;3.47;;
3815;SDS011;1923;48.154;11.536;2023-07-29T15:06:56;6.20;;;3.23;;
3815;SDS011;1923;48.154;11.536;2023-07-29T15:09:24;7.40;;;3.73;;
3815;SDS011;1923;48.154;11.536;2023-07-29T15:11:54;6.60;;;3.67;;
3815;SDS011;1923;48.154;11.536;2023-07-29T15:14:24;7.37;;;3.20;;
3815;SDS011;1923;48.154;11.536;2023-07-29T15:16:52;5.27;;;2.93;;
3815;SDS011;1923;48.154;11.536;2023-07-29T15:19:20;3.83;;;2.87;;